sensor_id;sensor_type;location;lat;lon;timestamp;pressure;altitude;pressure_sealevel;temperature;humidity
50292;BME280;36190;54.980;73.388;2023-05-21T00:01:18;100928.31;;;13.72;45.49
50292;BME280;36190;54.980;73.388;2023-05-21T00:03:45;100936.19;;;13.73;45.29
50292;BME280;36190;54.980;73.388;2023-05-21T00:06:14;100926.13;;;13.75;45.04
50292;BME280;36190;54.980;73.388;2023-05-21T00:08:41;100941.88;;;13.79;45.10
50292;BME280;36190;54.980;73.388;2023-05-21T00:11:10;100932.81;;;13.80;45.15
50292;BME280;36190;54.980;73.388;2023-05-21T00:13:38;100935.13;;;13.83;44.93
50292;BME280;36190;54.980;73.388;2023-05-21T00:16:06;100934.78;;;13.86;44.87
50292;BME280;36190;54.980;73.388;2023-05-21T00:18:35;100936.09;;;13.90;44.84
50292;BME280;36190;54.980;73.388;2023-05-21T00:21:04;100944.78;;;13.92;44.81
50292;BME280;36190;54.980;73.388;2023-05-21T00:23:31;100947.16;;;13.95;44.85
50292;BME280;36190;54.980;73.388;2023-05-21T00:26:01;100945.13;;;13.97;44.92
50292;BME280;36190;54.980;73.388;2023-05-21T00:28:30;100941.25;;;14.00;45.19
50292;BME280;36190;54.980;73.388;2023-05-21T00:30:57;100945.06;;;14.06;44.83
50292;BME280;36190;54.980;73.388;2023-05-21T00:33:24;100949.03;;;14.10;44.83
50292;BME280;36190;54.980;73.388;2023-05-21T00:35:53;100941.31;;;14.15;44.94
50292;BME280;36190;54.980;73.388;2023-05-21T00:38:21;100940.94;;;14.18;44.62
50292;BME280;36190;54.980;73.388;2023-05-21T00:40:49;100936.03;;;14.22;44.62
50292;BME280;36190;54.980;73.388;2023-05-21T00:43:17;100946.91;;;14.28;44.37
50292;BME280;36190;54.980;73.388;2023-05-21T00:45:46;100946.72;;;14.30;44.34
50292;BME280;36190;54.980;73.388;2023-05-21T00:48:13;100942.50;;;14.36;43.83
50292;BME280;36190;54.980;73.388;2023-05-21T00:50:41;100943.47;;;14.43;43.64
50292;BME280;36190;54.980;73.388;2023-05-21T00:53:09;100945.41;;;14.49;43.37
50292;BME280;36190;54.980;73.388;2023-05-21T00:55:37;100946.34;;;14.56;43.32
50292;BME280;36190;54.980;73.388;2023-05-21T00:58:05;100942.31;;;14.61;43.32
50292;BME280;36190;54.980;73.388;2023-05-21T01:00:34;100946.22;;;14.73;42.83
50292;BME280;36190;54.980;73.388;2023-05-21T01:03:03;100955.88;;;14.82;42.61
50292;BME280;36190;54.980;73.388;2023-05-21T01:05:31;100958.47;;;14.91;42.34
50292;BME280;36190;54.980;73.388;2023-05-21T01:07:59;100957.75;;;14.97;42.30
50292;BME280;36190;54.980;73.388;2023-05-21T01:10:27;100959.72;;;15.03;42.20
50292;BME280;36190;54.980;73.388;2023-05-21T01:12:56;100960.53;;;15.04;42.06
50292;BME280;36190;54.980;73.388;2023-05-21T01:15:25;100959.81;;;15.10;41.98
50292;BME280;36190;54.980;73.388;2023-05-21T01:17:53;100947.41;;;15.09;41.72
50292;BME280;36190;54.980;73.388;2023-05-21T01:20:23;100959.16;;;15.23;41.78
50292;BME280;36190;54.980;73.388;2023-05-21T01:22:53;100963.81;;;15.29;41.51
50292;BME280;36190;54.980;73.388;2023-05-21T01:25:21;100955.00;;;15.35;41.46
50292;BME280;36190;54.980;73.388;2023-05-21T01:27:49;100961.31;;;15.43;41.17
50292;BME280;36190;54.980;73.388;2023-05-21T01:30:17;100953.50;;;15.48;41.00
50292;BME280;36190;54.980;73.388;2023-05-21T01:32:48;100959.53;;;15.50;41.02
50292;BME280;36190;54.980;73.388;2023-05-21T01:35:20;100951.09;;;15.53;40.96
50292;BME280;36190;54.980;73.388;2023-05-21T01:37:54;100938.59;;;15.45;41.06
50292;BME280;36190;54.980;73.388;2023-05-21T01:40:28;100954.06;;;15.58;40.95
50292;BME280;36190;54.980;73.388;2023-05-21T01:42:57;100952.94;;;15.67;40.99
50292;BME280;36190;54.980;73.388;2023-05-21T01:45:28;100954.97;;;15.65;40.99
50292;BME280;36190;54.980;73.388;2023-05-21T01:47:57;100960.78;;;15.69;41.04
50292;BME280;36190;54.980;73.388;2023-05-21T01:50:25;100961.25;;;15.73;41.05
50292;BME280;36190;54.980;73.388;2023-05-21T01:52:55;100958.84;;;15.78;40.89
50292;BME280;36190;54.980;73.388;2023-05-21T01:55:23;100963.81;;;15.81;41.05
50292;BME280;36190;54.980;73.388;2023-05-21T01:57:51;100966.78;;;15.86;40.97
50292;BME280;36190;54.980;73.388;2023-05-21T02:00:19;100966.41;;;15.89;40.93
50292;BME280;36190;54.980;73.388;2023-05-21T02:02:47;100960.69;;;15.92;40.76
50292;BME280;36190;54.980;73.388;2023-05-21T02:05:14;100963.00;;;15.95;40.76
50292;BME280;36190;54.980;73.388;2023-05-21T02:07:43;100967.00;;;16.00;40.75
50292;BME280;36190;54.980;73.388;2023-05-21T02:10:12;100969.09;;;16.04;40.47
50292;BME280;36190;54.980;73.388;2023-05-21T02:12:40;100967.06;;;16.06;40.21
50292;BME280;36190;54.980;73.388;2023-05-21T02:15:09;100972.50;;;16.13;40.25
50292;BME280;36190;54.980;73.388;2023-05-21T02:17:42;100971.75;;;16.19;40.26
50292;BME280;36190;54.980;73.388;2023-05-21T02:20:11;100978.41;;;16.24;40.06
50292;BME280;36190;54.980;73.388;2023-05-21T02:22:39;100977.63;;;16.30;40.06
50292;BME280;36190;54.980;73.388;2023-05-21T02:25:08;100980.41;;;16.36;40.02
50292;BME280;36190;54.980;73.388;2023-05-21T02:27:37;100981.94;;;16.46;39.95
50292;BME280;36190;54.980;73.388;2023-05-21T02:30:06;100969.75;;;16.50;39.87
50292;BME280;36190;54.980;73.388;2023-05-21T02:32:34;100977.81;;;16.72;39.80
50292;BME280;36190;54.980;73.388;2023-05-21T02:35:03;100988.13;;;16.90;39.57
50292;BME280;36190;54.980;73.388;2023-05-21T02:37:31;100983.69;;;17.04;39.64
50292;BME280;36190;54.980;73.388;2023-05-21T02:39:59;100987.28;;;17.18;39.71
50292;BME280;36190;54.980;73.388;2023-05-21T02:42:27;100986.53;;;17.31;39.34
50292;BME280;36190;54.980;73.388;2023-05-21T02:44:56;100987.44;;;17.45;39.23
50292;BME280;36190;54.980;73.388;2023-05-21T02:47:23;100994.56;;;17.59;38.89
50292;BME280;36190;54.980;73.388;2023-05-21T02:49:51;100993.59;;;17.74;38.78
50292;BME280;36190;54.980;73.388;2023-05-21T02:52:20;100988.25;;;17.87;38.85
50292;BME280;36190;54.980;73.388;2023-05-21T02:54:48;100986.63;;;18.00;38.77
50292;BME280;36190;54.980;73.388;2023-05-21T02:57:16;100982.72;;;18.09;38.59
50292;BME280;36190;54.980;73.388;2023-05-21T02:59:43;100987.31;;;18.16;38.42
50292;BME280;36190;54.980;73.388;2023-05-21T03:02:12;100989.44;;;18.27;38.13
50292;BME280;36190;54.980;73.388;2023-05-21T03:04:40;100986.56;;;18.35;38.00
50292;BME280;36190;54.980;73.388;2023-05-21T03:07:10;100992.75;;;18.42;37.89
50292;BME280;36190;54.980;73.388;2023-05-21T03:09:38;100992.56;;;18.51;37.59
50292;BME280;36190;54.980;73.388;2023-05-21T03:12:07;100984.69;;;18.56;37.47
50292;BME280;36190;54.980;73.388;2023-05-21T03:14:34;100982.19;;;18.61;37.48
50292;BME280;36190;54.980;73.388;2023-05-21T03:17:02;100987.59;;;18.68;37.35
50292;BME280;36190;54.980;73.388;2023-05-21T03:19:32;100984.50;;;18.78;37.13
50292;BME280;36190;54.980;73.388;2023-05-21T03:22:00;100990.91;;;18.90;36.90
50292;BME280;36190;54.980;73.388;2023-05-21T03:24:28;100991.34;;;19.01;36.80
50292;BME280;36190;54.980;73.388;2023-05-21T03:26:56;100985.09;;;19.07;36.47
50292;BME280;36190;54.980;73.388;2023-05-21T03:29:24;100982.59;;;19.12;36.39
50292;BME280;36190;54.980;73.388;2023-05-21T03:31:52;100982.59;;;19.19;36.11
50292;BME280;36190;54.980;73.388;2023-05-21T03:34:20;100986.09;;;19.26;35.82
50292;BME280;36190;54.980;73.388;2023-05-21T03:36:49;100985.25;;;19.32;35.55
50292;BME280;36190;54.980;73.388;2023-05-21T03:39:17;100994.19;;;19.40;35.31
50292;BME280;36190;54.980;73.388;2023-05-21T03:41:44;100996.25;;;19.44;35.08
50292;BME280;36190;54.980;73.388;2023-05-21T03:44:12;100994.97;;;19.54;35.05
50292;BME280;36190;54.980;73.388;2023-05-21T03:46:39;100994.31;;;19.65;34.83
50292;BME280;36190;54.980;73.388;2023-05-21T03:49:07;100993.03;;;19.74;34.50
50292;BME280;36190;54.980;73.388;2023-05-21T03:51:34;100982.56;;;19.85;34.51
50292;BME280;36190;54.980;73.388;2023-05-21T03:54:04;100984.84;;;19.95;34.13
50292;BME280;36190;54.980;73.388;2023-05-21T03:56:32;100987.69;;;20.06;34.20
50292;BME280;36190;54.980;73.388;2023-05-21T03:58:59;100988.06;;;20.17;33.89
50292;BME280;36190;54.980;73.388;2023-05-21T04:01:27;100979.03;;;20.23;33.51
50292;BME280;36190;54.980;73.388;2023-05-21T04:03:55;100988.59;;;20.32;33.27
50292;BME280;36190;54.980;73.388;2023-05-21T04:06:22;100975.81;;;20.40;33.11
50292;BME280;36190;54.980;73.388;2023-05-21T04:08:50;100979.94;;;20.49;32.72
50292;BME280;36190;54.980;73.388;2023-05-21T04:11:19;100982.38;;;20.57;32.35
50292;BME280;36190;54.980;73.388;2023-05-21T04:13:46;100978.53;;;20.65;32.31
50292;BME280;36190;54.980;73.388;2023-05-21T04:16:14;100973.03;;;20.72;32.22
50292;BME280;36190;54.980;73.388;2023-05-21T04:18:43;100971.75;;;20.81;32.18
50292;BME280;36190;54.980;73.388;2023-05-21T04:21:11;100967.09;;;20.88;32.01
50292;BME280;36190;54.980;73.388;2023-05-21T04:23:39;100977.03;;;20.95;31.68
50292;BME280;36190;54.980;73.388;2023-05-21T04:26:06;100975.09;;;21.02;31.03
50292;BME280;36190;54.980;73.388;2023-05-21T04:28:35;100974.81;;;21.10;30.52
50292;BME280;36190;54.980;73.388;2023-05-21T04:31:06;100975.13;;;21.21;30.23
50292;BME280;36190;54.980;73.388;2023-05-21T04:33:34;100979.22;;;21.30;30.04
50292;BME280;36190;54.980;73.388;2023-05-21T04:36:02;100970.31;;;21.41;30.01
50292;BME280;36190;54.980;73.388;2023-05-21T04:38:30;100969.09;;;21.56;29.64
50292;BME280;36190;54.980;73.388;2023-05-21T04:40:58;100966.47;;;21.68;29.45
50292;BME280;36190;54.980;73.388;2023-05-21T04:43:28;100961.41;;;21.72;29.21
50292;BME280;36190;54.980;73.388;2023-05-21T04:45:58;100969.38;;;21.85;28.94
50292;BME280;36190;54.980;73.388;2023-05-21T04:48:26;100964.34;;;22.01;28.67
50292;BME280;36190;54.980;73.388;2023-05-21T04:50:54;100959.09;;;22.18;28.45
50292;BME280;36190;54.980;73.388;2023-05-21T04:53:21;100949.75;;;22.25;27.71
50292;BME280;36190;54.980;73.388;2023-05-21T04:55:50;100953.69;;;22.30;27.67
50292;BME280;36190;54.980;73.388;2023-05-21T04:58:18;100942.13;;;22.46;27.68
50292;BME280;36190;54.980;73.388;2023-05-21T05:00:47;100956.13;;;22.62;27.27
50292;BME280;36190;54.980;73.388;2023-05-21T05:03:18;100962.28;;;22.69;26.98
50292;BME280;36190;54.980;73.388;2023-05-21T05:05:46;100968.41;;;22.76;26.67
50292;BME280;36190;54.980;73.388;2023-05-21T05:08:13;100958.59;;;22.75;26.44
50292;BME280;36190;54.980;73.388;2023-05-21T05:10:41;100957.44;;;22.59;26.22
50292;BME280;36190;54.980;73.388;2023-05-21T05:13:08;100950.16;;;22.41;26.20
50292;BME280;36190;54.980;73.388;2023-05-21T05:15:37;100953.19;;;22.21;26.49
50292;BME280;36190;54.980;73.388;2023-05-21T05:18:06;100945.06;;;21.90;26.73
50292;BME280;36190;54.980;73.388;2023-05-21T05:20:35;100953.16;;;21.78;27.10
50292;BME280;36190;54.980;73.388;2023-05-21T05:23:03;100944.09;;;21.84;26.81
50292;BME280;36190;54.980;73.388;2023-05-21T05:25:30;100947.19;;;21.88;26.85
50292;BME280;36190;54.980;73.388;2023-05-21T05:27:57;100943.84;;;21.86;26.73
50292;BME280;36190;54.980;73.388;2023-05-21T05:30:25;100942.94;;;21.92;26.74
50292;BME280;36190;54.980;73.388;2023-05-21T05:32:52;100938.50;;;22.10;26.71
50292;BME280;36190;54.980;73.388;2023-05-21T05:35:20;100941.03;;;22.23;26.60
50292;BME280;36190;54.980;73.388;2023-05-21T05:37:49;100947.91;;;22.38;26.38
50292;BME280;36190;54.980;73.388;2023-05-21T05:40:16;100937.50;;;22.47;26.26
50292;BME280;36190;54.980;73.388;2023-05-21T05:42:44;100936.84;;;22.51;26.20
50292;BME280;36190;54.980;73.388;2023-05-21T05:45:14;100929.53;;;22.64;26.12
50292;BME280;36190;54.980;73.388;2023-05-21T05:47:41;100932.47;;;22.74;25.83
50292;BME280;36190;54.980;73.388;2023-05-21T05:50:09;100932.69;;;22.85;25.82
50292;BME280;36190;54.980;73.388;2023-05-21T05:52:37;100931.28;;;22.94;25.78
50292;BME280;36190;54.980;73.388;2023-05-21T05:55:08;100926.06;;;23.04;25.64
50292;BME280;36190;54.980;73.388;2023-05-21T05:57:37;100926.63;;;23.18;25.57
50292;BME280;36190;54.980;73.388;2023-05-21T06:00:06;100923.69;;;23.20;25.63
50292;BME280;36190;54.980;73.388;2023-05-21T06:02:35;100922.63;;;23.09;25.80
50292;BME280;36190;54.980;73.388;2023-05-21T06:05:02;100921.34;;;22.88;25.88
50292;BME280;36190;54.980;73.388;2023-05-21T06:07:31;100922.06;;;22.71;26.04
50292;BME280;36190;54.980;73.388;2023-05-21T06:09:59;100909.53;;;22.70;26.11
50292;BME280;36190;54.980;73.388;2023-05-21T06:12:27;100916.50;;;22.90;25.97
50292;BME280;36190;54.980;73.388;2023-05-21T06:14:55;100911.88;;;23.02;25.78
50292;BME280;36190;54.980;73.388;2023-05-21T06:17:22;100905.00;;;23.12;25.58
50292;BME280;36190;54.980;73.388;2023-05-21T06:19:50;100903.06;;;23.24;25.42
50292;BME280;36190;54.980;73.388;2023-05-21T06:22:17;100903.66;;;23.38;25.60
50292;BME280;36190;54.980;73.388;2023-05-21T06:24:45;100893.31;;;23.52;25.46
50292;BME280;36190;54.980;73.388;2023-05-21T06:27:12;100904.28;;;23.57;25.27
50292;BME280;36190;54.980;73.388;2023-05-21T06:29:41;100897.34;;;23.49;25.26
50292;BME280;36190;54.980;73.388;2023-05-21T06:32:09;100899.59;;;23.41;25.12
50292;BME280;36190;54.980;73.388;2023-05-21T06:34:36;100904.38;;;23.33;25.24
50292;BME280;36190;54.980;73.388;2023-05-21T06:37:04;100900.34;;;23.24;25.41
50292;BME280;36190;54.980;73.388;2023-05-21T06:39:32;100904.47;;;23.39;25.23
50292;BME280;36190;54.980;73.388;2023-05-21T06:41:59;100900.13;;;23.67;24.88
50292;BME280;36190;54.980;73.388;2023-05-21T06:44:26;100892.88;;;23.89;24.64
50292;BME280;36190;54.980;73.388;2023-05-21T06:46:55;100885.66;;;24.12;24.38
50292;BME280;36190;54.980;73.388;2023-05-21T06:49:23;100886.16;;;24.43;24.19
50292;BME280;36190;54.980;73.388;2023-05-21T06:51:51;100883.97;;;24.80;23.88
50292;BME280;36190;54.980;73.388;2023-05-21T06:54:21;100886.72;;;25.02;23.58
50292;BME280;36190;54.980;73.388;2023-05-21T06:56:49;100886.41;;;25.21;23.15
50292;BME280;36190;54.980;73.388;2023-05-21T06:59:17;100887.38;;;25.37;23.30
50292;BME280;36190;54.980;73.388;2023-05-21T07:01:44;100880.53;;;25.57;23.13
50292;BME280;36190;54.980;73.388;2023-05-21T07:04:13;100892.13;;;25.69;22.68
50292;BME280;36190;54.980;73.388;2023-05-21T07:06:41;100893.38;;;25.84;22.25
50292;BME280;36190;54.980;73.388;2023-05-21T07:09:08;100877.56;;;25.91;22.06
50292;BME280;36190;54.980;73.388;2023-05-21T07:11:36;100883.69;;;26.03;22.22
50292;BME280;36190;54.980;73.388;2023-05-21T07:14:03;100884.44;;;26.21;21.89
50292;BME280;36190;54.980;73.388;2023-05-21T07:16:31;100884.78;;;26.35;21.94
50292;BME280;36190;54.980;73.388;2023-05-21T07:18:58;100871.94;;;26.35;21.55
50292;BME280;36190;54.980;73.388;2023-05-21T07:21:27;100871.66;;;26.37;21.36
50292;BME280;36190;54.980;73.388;2023-05-21T07:23:54;100874.50;;;26.20;21.80
50292;BME280;36190;54.980;73.388;2023-05-21T07:26:22;100883.09;;;25.96;21.78
50292;BME280;36190;54.980;73.388;2023-05-21T07:28:50;100873.59;;;25.71;22.12
50292;BME280;36190;54.980;73.388;2023-05-21T07:31:18;100867.16;;;25.33;22.08
50292;BME280;36190;54.980;73.388;2023-05-21T07:33:45;100880.44;;;25.02;22.26
50292;BME280;36190;54.980;73.388;2023-05-21T07:36:13;100870.81;;;24.77;22.59
50292;BME280;36190;54.980;73.388;2023-05-21T07:38:42;100873.69;;;24.87;22.48
50292;BME280;36190;54.980;73.388;2023-05-21T07:41:10;100867.78;;;25.18;22.60
50292;BME280;36190;54.980;73.388;2023-05-21T07:43:37;100872.06;;;25.58;22.30
50292;BME280;36190;54.980;73.388;2023-05-21T07:46:05;100865.00;;;25.90;21.89
50292;BME280;36190;54.980;73.388;2023-05-21T07:48:32;100871.31;;;26.23;21.28
50292;BME280;36190;54.980;73.388;2023-05-21T07:51:00;100862.22;;;26.55;20.88
50292;BME280;36190;54.980;73.388;2023-05-21T07:53:28;100869.47;;;26.82;20.81
50292;BME280;36190;54.980;73.388;2023-05-21T07:55:58;100867.66;;;27.03;20.31
50292;BME280;36190;54.980;73.388;2023-05-21T07:58:26;100861.47;;;27.29;20.30
50292;BME280;36190;54.980;73.388;2023-05-21T08:00:53;100864.31;;;27.60;20.16
50292;BME280;36190;54.980;73.388;2023-05-21T08:03:22;100855.53;;;28.05;19.80
50292;BME280;36190;54.980;73.388;2023-05-21T08:05:49;100875.31;;;28.33;19.88
50292;BME280;36190;54.980;73.388;2023-05-21T08:08:17;100875.81;;;28.19;19.65
50292;BME280;36190;54.980;73.388;2023-05-21T08:10:46;100872.53;;;27.96;19.90
50292;BME280;36190;54.980;73.388;2023-05-21T08:13:16;100868.13;;;27.59;19.86
50292;BME280;36190;54.980;73.388;2023-05-21T08:15:43;100862.00;;;27.31;19.99
50292;BME280;36190;54.980;73.388;2023-05-21T08:18:11;100861.44;;;27.34;19.98
50292;BME280;36190;54.980;73.388;2023-05-21T08:20:38;100864.03;;;27.67;19.58
50292;BME280;36190;54.980;73.388;2023-05-21T08:23:06;100851.69;;;28.11;19.14
50292;BME280;36190;54.980;73.388;2023-05-21T08:25:33;100853.81;;;28.66;19.04
50292;BME280;36190;54.980;73.388;2023-05-21T08:28:01;100851.47;;;29.04;18.50
50292;BME280;36190;54.980;73.388;2023-05-21T08:30:30;100851.38;;;29.25;18.45
50292;BME280;36190;54.980;73.388;2023-05-21T08:32:57;100856.78;;;29.35;18.16
50292;BME280;36190;54.980;73.388;2023-05-21T08:35:25;100852.38;;;29.40;18.20
50292;BME280;36190;54.980;73.388;2023-05-21T08:37:52;100852.75;;;29.68;18.23
50292;BME280;36190;54.980;73.388;2023-05-21T08:40:20;100850.88;;;29.98;17.66
50292;BME280;36190;54.980;73.388;2023-05-21T08:42:48;100847.66;;;29.85;17.72
50292;BME280;36190;54.980;73.388;2023-05-21T08:45:19;100844.69;;;29.42;18.14
50292;BME280;36190;54.980;73.388;2023-05-21T08:47:53;100847.53;;;29.26;18.08
50292;BME280;36190;54.980;73.388;2023-05-21T08:50:23;100847.00;;;29.19;18.02
50292;BME280;36190;54.980;73.388;2023-05-21T08:52:52;100837.75;;;29.04;18.58
50292;BME280;36190;54.980;73.388;2023-05-21T08:55:20;100841.56;;;29.08;18.40
50292;BME280;36190;54.980;73.388;2023-05-21T08:57:48;100846.41;;;29.27;17.77
50292;BME280;36190;54.980;73.388;2023-05-21T09:00:16;100847.09;;;29.54;18.05
50292;BME280;36190;54.980;73.388;2023-05-21T09:02:45;100850.13;;;29.87;17.56
50292;BME280;36190;54.980;73.388;2023-05-21T09:05:15;100846.75;;;30.30;17.27
50292;BME280;36190;54.980;73.388;2023-05-21T09:07:46;100838.94;;;30.67;16.98
50292;BME280;36190;54.980;73.388;2023-05-21T09:10:17;100841.00;;;30.99;16.58
50292;BME280;36190;54.980;73.388;2023-05-21T09:12:48;100853.97;;;31.18;16.70
50292;BME280;36190;54.980;73.388;2023-05-21T09:15:16;100851.13;;;31.23;16.34
50292;BME280;36190;54.980;73.388;2023-05-21T09:17:45;100846.22;;;31.20;16.28
50292;BME280;36190;54.980;73.388;2023-05-21T09:20:16;100848.16;;;31.20;16.06
50292;BME280;36190;54.980;73.388;2023-05-21T09:22:44;100843.06;;;31.32;16.28
50292;BME280;36190;54.980;73.388;2023-05-21T09:25:14;100830.25;;;31.75;16.09
50292;BME280;36190;54.980;73.388;2023-05-21T09:27:42;100829.47;;;32.35;15.76
50292;BME280;36190;54.980;73.388;2023-05-21T09:30:11;100834.59;;;32.98;15.45
50292;BME280;36190;54.980;73.388;2023-05-21T09:32:39;100830.81;;;33.08;15.21
50292;BME280;36190;54.980;73.388;2023-05-21T09:35:08;100841.25;;;32.55;15.27
50292;BME280;36190;54.980;73.388;2023-05-21T09:37:39;100834.97;;;31.55;15.71
50292;BME280;36190;54.980;73.388;2023-05-21T09:40:15;100835.00;;;30.73;15.71
50292;BME280;36190;54.980;73.388;2023-05-21T09:42:45;100829.81;;;30.17;16.08
50292;BME280;36190;54.980;73.388;2023-05-21T09:45:17;100829.25;;;30.45;15.73
50292;BME280;36190;54.980;73.388;2023-05-21T09:47:48;100838.75;;;31.01;15.62
50292;BME280;36190;54.980;73.388;2023-05-21T09:50:18;100840.19;;;31.56;15.42
50292;BME280;36190;54.980;73.388;2023-05-21T09:52:48;100832.63;;;32.29;14.98
50292;BME280;36190;54.980;73.388;2023-05-21T09:55:18;100834.22;;;33.28;14.41
50292;BME280;36190;54.980;73.388;2023-05-21T09:57:48;100833.34;;;34.10;13.88
50292;BME280;36190;54.980;73.388;2023-05-21T10:00:18;100838.16;;;34.67;13.39
50292;BME280;36190;54.980;73.388;2023-05-21T10:02:46;100835.38;;;34.67;13.00
50292;BME280;36190;54.980;73.388;2023-05-21T10:05:15;100834.63;;;34.44;13.07
50292;BME280;36190;54.980;73.388;2023-05-21T10:07:49;100825.69;;;34.07;13.17
50292;BME280;36190;54.980;73.388;2023-05-21T10:10:19;100827.44;;;33.34;13.59
50292;BME280;36190;54.980;73.388;2023-05-21T10:12:52;100827.06;;;32.62;13.86
50292;BME280;36190;54.980;73.388;2023-05-21T10:15:23;100830.47;;;32.12;13.89
50292;BME280;36190;54.980;73.388;2023-05-21T10:17:51;100829.88;;;32.29;14.29
50292;BME280;36190;54.980;73.388;2023-05-21T10:20:21;100826.91;;;32.81;13.89
50292;BME280;36190;54.980;73.388;2023-05-21T10:22:51;100833.56;;;33.68;13.43
50292;BME280;36190;54.980;73.388;2023-05-21T10:25:19;100835.47;;;34.53;13.01
50292;BME280;36190;54.980;73.388;2023-05-21T10:27:47;100833.81;;;35.10;12.96
50292;BME280;36190;54.980;73.388;2023-05-21T10:30:17;100829.44;;;35.62;12.53
50292;BME280;36190;54.980;73.388;2023-05-21T10:32:46;100848.31;;;35.96;12.36
50292;BME280;36190;54.980;73.388;2023-05-21T10:35:15;100838.94;;;36.18;12.70
50292;BME280;36190;54.980;73.388;2023-05-21T10:37:43;100844.56;;;35.83;12.38
50292;BME280;36190;54.980;73.388;2023-05-21T10:40:13;100841.34;;;35.45;12.54
50292;BME280;36190;54.980;73.388;2023-05-21T10:45:53;100842.13;;;34.52;13.12
50292;BME280;36190;54.980;73.388;2023-05-21T10:48:35;100840.25;;;34.21;13.36
50292;BME280;36190;54.980;73.388;2023-05-21T10:51:19;100834.72;;;34.21;13.18
50292;BME280;36190;54.980;73.388;2023-05-21T10:54:07;100843.00;;;34.62;13.14
50292;BME280;36190;54.980;73.388;2023-05-21T10:56:47;100844.75;;;35.07;12.99
50292;BME280;36190;54.980;73.388;2023-05-21T10:59:31;100844.41;;;35.79;12.58
50292;BME280;36190;54.980;73.388;2023-05-21T11:02:03;100847.63;;;36.08;12.28
50292;BME280;36190;54.980;73.388;2023-05-21T11:04:31;100853.34;;;36.50;12.03
50292;BME280;36190;54.980;73.388;2023-05-21T11:07:04;100854.72;;;36.74;11.89
50292;BME280;36190;54.980;73.388;2023-05-21T11:09:32;100851.47;;;36.72;11.96
50292;BME280;36190;54.980;73.388;2023-05-21T11:12:01;100846.19;;;36.79;11.59
50292;BME280;36190;54.980;73.388;2023-05-21T11:14:31;100851.97;;;36.65;11.61
50292;BME280;36190;54.980;73.388;2023-05-21T11:17:01;100847.72;;;37.19;11.66
50292;BME280;36190;54.980;73.388;2023-05-21T11:19:37;100851.84;;;38.02;11.08
50292;BME280;36190;54.980;73.388;2023-05-21T11:22:20;100849.69;;;38.70;11.21
50292;BME280;36190;54.980;73.388;2023-05-21T11:24:48;100854.59;;;38.60;10.90
50292;BME280;36190;54.980;73.388;2023-05-21T11:27:31;100852.47;;;38.32;10.70
50292;BME280;36190;54.980;73.388;2023-05-21T11:30:03;100873.59;;;38.21;11.27
50292;BME280;36190;54.980;73.388;2023-05-21T11:32:30;100866.16;;;38.25;10.67
50292;BME280;36190;54.980;73.388;2023-05-21T11:34:59;100864.41;;;38.33;10.71
50292;BME280;36190;54.980;73.388;2023-05-21T11:37:29;100861.38;;;37.67;10.82
50292;BME280;36190;54.980;73.388;2023-05-21T11:40:15;100862.03;;;37.09;11.35
50292;BME280;36190;54.980;73.388;2023-05-21T11:42:48;100868.81;;;36.90;11.70
50292;BME280;36190;54.980;73.388;2023-05-21T11:45:17;100866.91;;;36.82;11.36
50292;BME280;36190;54.980;73.388;2023-05-21T11:47:45;100856.59;;;37.12;11.46
50292;BME280;36190;54.980;73.388;2023-05-21T11:50:14;100856.84;;;37.41;11.45
50292;BME280;36190;54.980;73.388;2023-05-21T11:52:43;100849.31;;;37.41;11.19
50292;BME280;36190;54.980;73.388;2023-05-21T11:55:11;100859.97;;;36.97;11.64
50292;BME280;36190;54.980;73.388;2023-05-21T11:57:41;100858.09;;;37.31;11.59
50292;BME280;36190;54.980;73.388;2023-05-21T12:00:14;100863.59;;;38.07;10.95
50292;BME280;36190;54.980;73.388;2023-05-21T12:02:48;100855.47;;;38.89;10.51
50292;BME280;36190;54.980;73.388;2023-05-21T12:05:16;100862.03;;;39.22;10.55
50292;BME280;36190;54.980;73.388;2023-05-21T12:07:46;100863.16;;;38.80;10.72
50292;BME280;36190;54.980;73.388;2023-05-21T12:10:15;100858.34;;;37.60;11.15
50292;BME280;36190;54.980;73.388;2023-05-21T12:12:42;100855.69;;;36.99;11.12
50292;BME280;36190;54.980;73.388;2023-05-21T12:15:10;100859.75;;;37.66;10.87
50292;BME280;36190;54.980;73.388;2023-05-21T12:17:41;100858.25;;;38.89;10.52
50292;BME280;36190;54.980;73.388;2023-05-21T12:20:14;100854.38;;;39.76;10.16
50292;BME280;36190;54.980;73.388;2023-05-21T12:22:41;100853.31;;;40.29;10.25
50292;BME280;36190;54.980;73.388;2023-05-21T12:25:09;100851.38;;;40.81;9.78
50292;BME280;36190;54.980;73.388;2023-05-21T12:27:38;100857.31;;;40.96;9.48
50292;BME280;36190;54.980;73.388;2023-05-21T12:30:07;100852.53;;;40.28;9.79
50292;BME280;36190;54.980;73.388;2023-05-21T12:32:41;100852.81;;;39.34;9.95
50292;BME280;36190;54.980;73.388;2023-05-21T12:35:19;100855.31;;;39.52;10.20
50292;BME280;36190;54.980;73.388;2023-05-21T12:37:47;100853.56;;;39.75;10.19
50292;BME280;36190;54.980;73.388;2023-05-21T12:40:16;100861.38;;;39.54;10.26
50292;BME280;36190;54.980;73.388;2023-05-21T12:42:43;100859.75;;;39.69;9.65
50292;BME280;36190;54.980;73.388;2023-05-21T12:45:11;100868.78;;;39.62;10.25
50292;BME280;36190;54.980;73.388;2023-05-21T12:47:41;100862.94;;;38.98;10.29
50292;BME280;36190;54.980;73.388;2023-05-21T12:50:13;100857.34;;;38.85;10.47
50292;BME280;36190;54.980;73.388;2023-05-21T12:52:41;100875.44;;;38.91;10.08